sensor_id;sensor_type;location;lat;lon;timestamp;P1;durP1;ratioP1;P2;durP2;ratioP2
76262;SDS011;65080;50.908;6.916;2022-11-25T00:01:28;9.97;;;3.20;;
76262;SDS011;65080;50.908;6.916;2022-11-25T00:03:58;10.30;;;3.70;;
76262;SDS011;65080;50.908;6.916;2022-11-25T00:06:27;15.23;;;3.47;;
76262;SDS011;65080;50.908;6.916;2022-11-25T00:08:58;10.83;;;3.80;;
76262;SDS011;65080;50.908;6.916;2022-11-25T00:11:28;9.20;;;3.63;;
76262;SDS011;65080;50.908;6.916;2022-11-25T00:13:56;13.90;;;3.03;;
76262;SDS011;65080;50.908;6.916;2022-11-25T00:16:26;7.27;;;2.70;;
76262;SDS011;65080;50.908;6.916;2022-11-25T00:18:55;10.73;;;2.63;;
76262;SDS011;65080;50.908;6.916;2022-11-25T00:21:25;9.80;;;2.80;;
76262;SDS011;65080;50.908;6.916;2022-11-25T00:23:55;7.50;;;2.63;;
76262;SDS011;65080;50.908;6.916;2022-11-25T00:26:26;10.57;;;3.00;;
76262;SDS011;65080;50.908;6.916;2022-11-25T00:28:56;9.90;;;3.27;;
76262;SDS011;65080;50.908;6.916;2022-11-25T00:31:25;12.33;;;2.83;;
76262;SDS011;65080;50.908;6.916;2022-11-25T00:33:55;10.00;;;3.10;;
76262;SDS011;65080;50.908;6.916;2022-11-25T00:36:24;11.77;;;4.17;;
76262;SDS011;65080;50.908;6.916;2022-11-25T00:38:55;10.30;;;2.93;;
76262;SDS011;65080;50.908;6.916;2022-11-25T00:41:25;11.47;;;3.40;;
76262;SDS011;65080;50.908;6.916;2022-11-25T00:44:14;11.30;;;2.70;;
76262;SDS011;65080;50.908;6.916;2022-11-25T00:47:06;19.50;;;3.30;;
76262;SDS011;65080;50.908;6.916;2022-11-25T00:49:36;10.03;;;2.90;;
76262;SDS011;65080;50.908;6.916;2022-11-25T00:52:04;10.67;;;3.80;;
76262;SDS011;65080;50.908;6.916;2022-11-25T00:54:33;8.03;;;2.60;;
76262;SDS011;65080;50.908;6.916;2022-11-25T00:57:03;11.60;;;2.97;;
76262;SDS011;65080;50.908;6.916;2022-11-25T00:59:31;10.77;;;3.10;;
76262;SDS011;65080;50.908;6.916;2022-11-25T01:01:59;11.37;;;3.67;;
76262;SDS011;65080;50.908;6.916;2022-11-25T01:04:27;11.00;;;3.00;;
76262;SDS011;65080;50.908;6.916;2022-11-25T01:06:56;9.57;;;3.43;;
76262;SDS011;65080;50.908;6.916;2022-11-25T01:09:25;10.17;;;3.50;;
76262;SDS011;65080;50.908;6.916;2022-11-25T01:11:54;9.83;;;2.40;;
76262;SDS011;65080;50.908;6.916;2022-11-25T01:14:24;13.93;;;2.93;;
76262;SDS011;65080;50.908;6.916;2022-11-25T01:16:52;14.50;;;3.80;;
76262;SDS011;65080;50.908;6.916;2022-11-25T01:19:21;8.03;;;2.97;;
76262;SDS011;65080;50.908;6.916;2022-11-25T01:21:49;11.97;;;3.30;;
76262;SDS011;65080;50.908;6.916;2022-11-25T01:24:19;10.67;;;2.30;;
76262;SDS011;65080;50.908;6.916;2022-11-25T01:26:49;13.70;;;3.10;;
76262;SDS011;65080;50.908;6.916;2022-11-25T01:29:18;11.87;;;3.87;;
76262;SDS011;65080;50.908;6.916;2022-11-25T01:31:47;22.10;;;3.63;;
76262;SDS011;65080;50.908;6.916;2022-11-25T01:34:17;7.83;;;3.10;;
76262;SDS011;65080;50.908;6.916;2022-11-25T01:36:46;13.30;;;3.53;;
76262;SDS011;65080;50.908;6.916;2022-11-25T01:39:16;16.80;;;3.53;;
76262;SDS011;65080;50.908;6.916;2022-11-25T01:41:45;15.63;;;3.50;;
76262;SDS011;65080;50.908;6.916;2022-11-25T01:44:15;11.80;;;3.20;;
76262;SDS011;65080;50.908;6.916;2022-11-25T01:46:56;11.27;;;3.30;;
76262;SDS011;65080;50.908;6.916;2022-11-25T01:49:29;7.63;;;3.03;;
76262;SDS011;65080;50.908;6.916;2022-11-25T01:52:02;12.10;;;3.40;;
76262;SDS011;65080;50.908;6.916;2022-11-25T01:54:36;10.87;;;3.43;;
76262;SDS011;65080;50.908;6.916;2022-11-25T01:57:08;19.00;;;3.10;;
76262;SDS011;65080;50.908;6.916;2022-11-25T01:59:41;6.73;;;2.70;;
76262;SDS011;65080;50.908;6.916;2022-11-25T02:02:14;8.10;;;3.13;;
76262;SDS011;65080;50.908;6.916;2022-11-25T02:04:43;9.80;;;3.40;;
76262;SDS011;65080;50.908;6.916;2022-11-25T02:07:14;11.87;;;3.27;;
76262;SDS011;65080;50.908;6.916;2022-11-25T02:09:47;10.07;;;3.30;;
76262;SDS011;65080;50.908;6.916;2022-11-25T02:12:17;10.90;;;3.47;;
76262;SDS011;65080;50.908;6.916;2022-11-25T02:14:47;15.60;;;4.47;;
76262;SDS011;65080;50.908;6.916;2022-11-25T02:17:18;14.77;;;4.07;;
76262;SDS011;65080;50.908;6.916;2022-11-25T02:19:51;14.17;;;2.50;;
76262;SDS011;65080;50.908;6.916;2022-11-25T02:22:37;8.67;;;3.47;;
76262;SDS011;65080;50.908;6.916;2022-11-25T02:25:15;9.10;;;3.40;;
76262;SDS011;65080;50.908;6.916;2022-11-25T02:27:47;8.93;;;2.93;;
76262;SDS011;65080;50.908;6.916;2022-11-25T02:30:18;12.80;;;3.60;;
76262;SDS011;65080;50.908;6.916;2022-11-25T02:32:47;11.57;;;3.03;;
76262;SDS011;65080;50.908;6.916;2022-11-25T02:35:25;14.13;;;3.50;;
76262;SDS011;65080;50.908;6.916;2022-11-25T02:37:57;13.70;;;2.97;;
76262;SDS011;65080;50.908;6.916;2022-11-25T02:40:30;13.73;;;3.23;;
76262;SDS011;65080;50.908;6.916;2022-11-25T02:43:01;12.07;;;4.90;;
76262;SDS011;65080;50.908;6.916;2022-11-25T02:45:32;7.87;;;3.93;;
76262;SDS011;65080;50.908;6.916;2022-11-25T02:48:09;5.70;;;3.00;;
76262;SDS011;65080;50.908;6.916;2022-11-25T02:50:37;9.03;;;2.77;;
76262;SDS011;65080;50.908;6.916;2022-11-25T02:53:05;8.50;;;3.90;;
76262;SDS011;65080;50.908;6.916;2022-11-25T02:55:35;14.60;;;3.10;;
76262;SDS011;65080;50.908;6.916;2022-11-25T02:58:03;14.70;;;3.27;;
76262;SDS011;65080;50.908;6.916;2022-11-25T03:00:31;13.23;;;3.00;;
76262;SDS011;65080;50.908;6.916;2022-11-25T03:03:00;8.60;;;3.30;;
76262;SDS011;65080;50.908;6.916;2022-11-25T03:05:28;13.83;;;3.60;;
76262;SDS011;65080;50.908;6.916;2022-11-25T03:07:56;9.80;;;3.40;;
76262;SDS011;65080;50.908;6.916;2022-11-25T03:10:25;8.10;;;3.17;;
76262;SDS011;65080;50.908;6.916;2022-11-25T03:12:54;10.80;;;3.27;;
76262;SDS011;65080;50.908;6.916;2022-11-25T03:15:23;9.70;;;2.90;;
76262;SDS011;65080;50.908;6.916;2022-11-25T03:17:51;9.60;;;3.50;;
76262;SDS011;65080;50.908;6.916;2022-11-25T03:20:20;10.50;;;3.17;;
76262;SDS011;65080;50.908;6.916;2022-11-25T03:22:48;10.63;;;3.10;;
76262;SDS011;65080;50.908;6.916;2022-11-25T03:25:17;15.43;;;3.90;;
76262;SDS011;65080;50.908;6.916;2022-11-25T03:27:45;9.67;;;2.80;;
76262;SDS011;65080;50.908;6.916;2022-11-25T03:30:16;11.60;;;3.37;;
76262;SDS011;65080;50.908;6.916;2022-11-25T03:32:45;12.83;;;3.50;;
76262;SDS011;65080;50.908;6.916;2022-11-25T03:35:14;10.40;;;3.10;;
76262;SDS011;65080;50.908;6.916;2022-11-25T03:37:43;10.23;;;3.30;;
76262;SDS011;65080;50.908;6.916;2022-11-25T03:40:12;9.30;;;2.63;;
76262;SDS011;65080;50.908;6.916;2022-11-25T03:42:41;7.97;;;2.70;;
76262;SDS011;65080;50.908;6.916;2022-11-25T03:45:23;9.53;;;2.87;;
76262;SDS011;65080;50.908;6.916;2022-11-25T03:47:52;9.87;;;3.20;;
76262;SDS011;65080;50.908;6.916;2022-11-25T03:50:20;12.30;;;3.30;;
76262;SDS011;65080;50.908;6.916;2022-11-25T03:52:48;12.90;;;3.00;;
76262;SDS011;65080;50.908;6.916;2022-11-25T03:55:16;8.53;;;3.00;;
76262;SDS011;65080;50.908;6.916;2022-11-25T03:57:44;9.97;;;3.43;;
76262;SDS011;65080;50.908;6.916;2022-11-25T04:00:13;9.77;;;3.40;;
76262;SDS011;65080;50.908;6.916;2022-11-25T04:02:43;8.83;;;2.90;;
76262;SDS011;65080;50.908;6.916;2022-11-25T04:05:11;5.93;;;2.77;;
76262;SDS011;65080;50.908;6.916;2022-11-25T04:07:39;9.50;;;2.83;;
76262;SDS011;65080;50.908;6.916;2022-11-25T04:10:08;15.97;;;3.70;;
76262;SDS011;65080;50.908;6.916;2022-11-25T04:12:37;8.10;;;2.77;;
76262;SDS011;65080;50.908;6.916;2022-11-25T04:15:13;12.73;;;4.67;;
76262;SDS011;65080;50.908;6.916;2022-11-25T04:17:44;15.67;;;3.20;;
76262;SDS011;65080;50.908;6.916;2022-11-25T04:20:12;10.00;;;3.60;;
76262;SDS011;65080;50.908;6.916;2022-11-25T04:22:41;11.67;;;3.27;;
76262;SDS011;65080;50.908;6.916;2022-11-25T04:25:10;13.17;;;3.03;;
76262;SDS011;65080;50.908;6.916;2022-11-25T04:27:38;12.73;;;3.03;;
76262;SDS011;65080;50.908;6.916;2022-11-25T04:30:07;7.63;;;2.77;;
76262;SDS011;65080;50.908;6.916;2022-11-25T04:32:36;10.83;;;2.83;;
76262;SDS011;65080;50.908;6.916;2022-11-25T04:35:06;10.40;;;2.80;;
76262;SDS011;65080;50.908;6.916;2022-11-25T04:37:35;12.87;;;3.43;;
76262;SDS011;65080;50.908;6.916;2022-11-25T04:40:04;8.50;;;2.40;;
76262;SDS011;65080;50.908;6.916;2022-11-25T04:42:34;11.43;;;3.20;;
76262;SDS011;65080;50.908;6.916;2022-11-25T04:45:04;12.90;;;3.40;;
76262;SDS011;65080;50.908;6.916;2022-11-25T04:47:50;8.70;;;2.80;;
76262;SDS011;65080;50.908;6.916;2022-11-25T04:50:20;7.47;;;2.90;;
76262;SDS011;65080;50.908;6.916;2022-11-25T04:52:49;11.43;;;2.90;;
76262;SDS011;65080;50.908;6.916;2022-11-25T04:55:18;5.47;;;2.70;;
76262;SDS011;65080;50.908;6.916;2022-11-25T04:57:46;16.03;;;3.57;;
76262;SDS011;65080;50.908;6.916;2022-11-25T05:00:14;10.50;;;2.97;;
76262;SDS011;65080;50.908;6.916;2022-11-25T05:02:42;12.17;;;2.90;;
76262;SDS011;65080;50.908;6.916;2022-11-25T05:05:10;12.50;;;3.27;;
76262;SDS011;65080;50.908;6.916;2022-11-25T05:07:40;10.27;;;2.40;;
76262;SDS011;65080;50.908;6.916;2022-11-25T05:10:08;14.37;;;3.20;;
76262;SDS011;65080;50.908;6.916;2022-11-25T05:12:37;12.37;;;2.43;;
76262;SDS011;65080;50.908;6.916;2022-11-25T05:15:06;17.10;;;3.07;;
76262;SDS011;65080;50.908;6.916;2022-11-25T05:17:35;14.07;;;3.13;;
76262;SDS011;65080;50.908;6.916;2022-11-25T05:20:05;15.10;;;2.83;;
76262;SDS011;65080;50.908;6.916;2022-11-25T05:22:34;6.77;;;2.23;;
76262;SDS011;65080;50.908;6.916;2022-11-25T05:25:04;10.30;;;2.90;;
76262;SDS011;65080;50.908;6.916;2022-11-25T05:27:32;6.03;;;2.20;;
76262;SDS011;65080;50.908;6.916;2022-11-25T05:30:01;12.37;;;3.10;;
76262;SDS011;65080;50.908;6.916;2022-11-25T05:32:29;7.93;;;3.00;;
76262;SDS011;65080;50.908;6.916;2022-11-25T05:34:58;12.00;;;2.77;;
76262;SDS011;65080;50.908;6.916;2022-11-25T05:37:26;8.87;;;2.57;;
76262;SDS011;65080;50.908;6.916;2022-11-25T05:39:54;11.07;;;2.50;;
76262;SDS011;65080;50.908;6.916;2022-11-25T05:42:25;12.70;;;2.83;;
76262;SDS011;65080;50.908;6.916;2022-11-25T05:44:55;9.07;;;2.70;;
76262;SDS011;65080;50.908;6.916;2022-11-25T05:47:23;11.60;;;2.87;;
76262;SDS011;65080;50.908;6.916;2022-11-25T05:49:51;13.60;;;3.77;;
76262;SDS011;65080;50.908;6.916;2022-11-25T05:52:20;10.83;;;4.30;;
76262;SDS011;65080;50.908;6.916;2022-11-25T05:54:48;10.63;;;3.70;;
76262;SDS011;65080;50.908;6.916;2022-11-25T05:57:22;8.67;;;2.97;;
76262;SDS011;65080;50.908;6.916;2022-11-25T05:59:52;12.80;;;3.70;;
76262;SDS011;65080;50.908;6.916;2022-11-25T06:02:20;20.30;;;4.17;;
76262;SDS011;65080;50.908;6.916;2022-11-25T06:04:48;18.67;;;5.20;;
76262;SDS011;65080;50.908;6.916;2022-11-25T06:07:16;9.50;;;3.57;;
76262;SDS011;65080;50.908;6.916;2022-11-25T06:09:45;16.70;;;5.33;;
76262;SDS011;65080;50.908;6.916;2022-11-25T06:12:13;15.40;;;5.37;;
76262;SDS011;65080;50.908;6.916;2022-11-25T06:14:41;12.97;;;4.13;;
76262;SDS011;65080;50.908;6.916;2022-11-25T06:17:11;8.30;;;3.83;;
76262;SDS011;65080;50.908;6.916;2022-11-25T06:19:39;12.83;;;3.63;;
76262;SDS011;65080;50.908;6.916;2022-11-25T06:22:07;14.87;;;4.10;;
76262;SDS011;65080;50.908;6.916;2022-11-25T06:24:35;11.27;;;3.80;;
76262;SDS011;65080;50.908;6.916;2022-11-25T06:27:04;10.10;;;3.23;;
76262;SDS011;65080;50.908;6.916;2022-11-25T06:29:32;9.93;;;4.83;;
76262;SDS011;65080;50.908;6.916;2022-11-25T06:32:01;14.37;;;3.83;;
76262;SDS011;65080;50.908;6.916;2022-11-25T06:34:30;14.13;;;4.33;;
76262;SDS011;65080;50.908;6.916;2022-11-25T06:36:59;11.07;;;3.60;;
76262;SDS011;65080;50.908;6.916;2022-11-25T06:39:27;13.60;;;3.20;;
76262;SDS011;65080;50.908;6.916;2022-11-25T06:41:55;17.57;;;3.90;;
76262;SDS011;65080;50.908;6.916;2022-11-25T06:44:24;14.77;;;3.83;;
76262;SDS011;65080;50.908;6.916;2022-11-25T06:46:52;10.07;;;3.30;;
76262;SDS011;65080;50.908;6.916;2022-11-25T06:49:20;15.60;;;3.60;;
76262;SDS011;65080;50.908;6.916;2022-11-25T06:51:50;10.10;;;3.23;;
76262;SDS011;65080;50.908;6.916;2022-11-25T06:54:18;10.63;;;3.03;;
76262;SDS011;65080;50.908;6.916;2022-11-25T06:56:46;9.40;;;3.37;;
76262;SDS011;65080;50.908;6.916;2022-11-25T06:59:17;10.73;;;3.77;;
76262;SDS011;65080;50.908;6.916;2022-11-25T07:01:46;13.00;;;3.27;;
76262;SDS011;65080;50.908;6.916;2022-11-25T07:04:14;15.87;;;3.20;;
76262;SDS011;65080;50.908;6.916;2022-11-25T07:06:42;7.73;;;3.03;;
76262;SDS011;65080;50.908;6.916;2022-11-25T07:09:12;10.93;;;3.60;;
76262;SDS011;65080;50.908;6.916;2022-11-25T07:11:40;14.80;;;3.60;;
76262;SDS011;65080;50.908;6.916;2022-11-25T07:14:10;18.23;;;3.83;;
76262;SDS011;65080;50.908;6.916;2022-11-25T07:16:41;10.43;;;3.70;;
76262;SDS011;65080;50.908;6.916;2022-11-25T07:19:12;9.43;;;3.10;;
76262;SDS011;65080;50.908;6.916;2022-11-25T07:21:42;9.57;;;2.90;;
76262;SDS011;65080;50.908;6.916;2022-11-25T07:24:13;14.50;;;3.00;;
76262;SDS011;65080;50.908;6.916;2022-11-25T07:26:42;13.90;;;4.33;;
76262;SDS011;65080;50.908;6.916;2022-11-25T07:29:12;10.20;;;3.30;;
76262;SDS011;65080;50.908;6.916;2022-11-25T07:32:01;12.07;;;2.83;;
76262;SDS011;65080;50.908;6.916;2022-11-25T07:34:35;8.97;;;3.27;;
76262;SDS011;65080;50.908;6.916;2022-11-25T07:37:04;16.47;;;3.73;;
76262;SDS011;65080;50.908;6.916;2022-11-25T07:39:34;14.30;;;4.40;;
76262;SDS011;65080;50.908;6.916;2022-11-25T07:42:03;9.67;;;3.73;;
76262;SDS011;65080;50.908;6.916;2022-11-25T07:44:31;10.83;;;3.87;;
76262;SDS011;65080;50.908;6.916;2022-11-25T07:47:00;8.97;;;3.80;;
76262;SDS011;65080;50.908;6.916;2022-11-25T07:49:28;14.70;;;4.17;;
76262;SDS011;65080;50.908;6.916;2022-11-25T07:51:56;11.30;;;3.37;;
76262;SDS011;65080;50.908;6.916;2022-11-25T07:54:27;10.00;;;3.30;;
76262;SDS011;65080;50.908;6.916;2022-11-25T07:56:57;10.37;;;2.73;;
76262;SDS011;65080;50.908;6.916;2022-11-25T07:59:26;10.50;;;3.87;;
76262;SDS011;65080;50.908;6.916;2022-11-25T08:01:54;11.70;;;3.50;;
76262;SDS011;65080;50.908;6.916;2022-11-25T08:04:23;11.37;;;3.03;;
76262;SDS011;65080;50.908;6.916;2022-11-25T08:06:51;11.30;;;3.50;;
76262;SDS011;65080;50.908;6.916;2022-11-25T08:09:21;11.17;;;3.40;;
76262;SDS011;65080;50.908;6.916;2022-11-25T08:11:51;13.83;;;3.93;;
76262;SDS011;65080;50.908;6.916;2022-11-25T08:14:20;17.67;;;4.67;;
76262;SDS011;65080;50.908;6.916;2022-11-25T08:16:49;7.00;;;3.60;;
76262;SDS011;65080;50.908;6.916;2022-11-25T08:19:17;14.37;;;4.60;;
76262;SDS011;65080;50.908;6.916;2022-11-25T08:21:46;9.50;;;4.40;;
76262;SDS011;65080;50.908;6.916;2022-11-25T08:24:15;16.87;;;4.23;;
76262;SDS011;65080;50.908;6.916;2022-11-25T08:26:46;6.23;;;3.43;;
76262;SDS011;65080;50.908;6.916;2022-11-25T08:29:15;7.17;;;3.40;;
76262;SDS011;65080;50.908;6.916;2022-11-25T08:31:46;9.57;;;3.37;;
76262;SDS011;65080;50.908;6.916;2022-11-25T08:34:15;8.70;;;4.00;;
76262;SDS011;65080;50.908;6.916;2022-11-25T08:36:45;7.07;;;2.77;;
76262;SDS011;65080;50.908;6.916;2022-11-25T08:39:15;9.67;;;3.50;;
76262;SDS011;65080;50.908;6.916;2022-11-25T08:42:04;6.33;;;2.50;;
76262;SDS011;65080;50.908;6.916;2022-11-25T08:44:32;5.40;;;2.50;;
76262;SDS011;65080;50.908;6.916;2022-11-25T08:47:02;11.23;;;2.90;;
76262;SDS011;65080;50.908;6.916;2022-11-25T08:49:30;5.73;;;2.30;;
76262;SDS011;65080;50.908;6.916;2022-11-25T08:52:06;7.30;;;2.67;;
76262;SDS011;65080;50.908;6.916;2022-11-25T08:54:35;5.90;;;2.10;;
76262;SDS011;65080;50.908;6.916;2022-11-25T08:57:03;6.83;;;2.70;;
76262;SDS011;65080;50.908;6.916;2022-11-25T08:59:32;6.67;;;2.60;;
76262;SDS011;65080;50.908;6.916;2022-11-25T09:02:01;5.43;;;2.73;;
76262;SDS011;65080;50.908;6.916;2022-11-25T09:04:30;6.47;;;2.30;;
76262;SDS011;65080;50.908;6.916;2022-11-25T09:06:59;9.60;;;2.40;;
76262;SDS011;65080;50.908;6.916;2022-11-25T09:09:28;6.20;;;2.20;;
76262;SDS011;65080;50.908;6.916;2022-11-25T09:11:56;3.53;;;2.20;;
76262;SDS011;65080;50.908;6.916;2022-11-25T09:14:24;5.27;;;2.90;;
76262;SDS011;65080;50.908;6.916;2022-11-25T09:16:52;5.87;;;2.63;;
76262;SDS011;65080;50.908;6.916;2022-11-25T09:19:24;5.93;;;2.70;;
76262;SDS011;65080;50.908;6.916;2022-11-25T09:21:52;7.00;;;3.43;;
76262;SDS011;65080;50.908;6.916;2022-11-25T09:24:20;5.63;;;2.10;;
76262;SDS011;65080;50.908;6.916;2022-11-25T09:26:49;6.80;;;2.40;;
76262;SDS011;65080;50.908;6.916;2022-11-25T09:29:17;7.40;;;2.53;;
76262;SDS011;65080;50.908;6.916;2022-11-25T09:31:45;5.77;;;2.80;;
76262;SDS011;65080;50.908;6.916;2022-11-25T09:34:20;3.87;;;2.53;;
76262;SDS011;65080;50.908;6.916;2022-11-25T09:36:50;9.07;;;2.60;;
76262;SDS011;65080;50.908;6.916;2022-11-25T09:39:18;10.10;;;3.00;;
76262;SDS011;65080;50.908;6.916;2022-11-25T09:41:51;8.07;;;2.50;;
76262;SDS011;65080;50.908;6.916;2022-11-25T09:44:49;9.53;;;3.10;;
76262;SDS011;65080;50.908;6.916;2022-11-25T09:47:45;10.63;;;2.73;;
76262;SDS011;65080;50.908;6.916;2022-11-25T09:50:27;10.30;;;2.77;;
76262;SDS011;65080;50.908;6.916;2022-11-25T09:53:11;9.57;;;2.90;;
76262;SDS011;65080;50.908;6.916;2022-11-25T09:55:49;7.33;;;2.50;;
76262;SDS011;65080;50.908;6.916;2022-11-25T09:58:29;9.47;;;2.47;;
76262;SDS011;65080;50.908;6.916;2022-11-25T10:01:01;13.93;;;2.80;;
76262;SDS011;65080;50.908;6.916;2022-11-25T10:03:33;8.67;;;2.33;;
76262;SDS011;65080;50.908;6.916;2022-11-25T10:06:07;11.03;;;2.50;;
76262;SDS011;65080;50.908;6.916;2022-11-25T10:08:43;6.80;;;2.27;;
76262;SDS011;65080;50.908;6.916;2022-11-25T10:11:21;8.13;;;2.27;;
76262;SDS011;65080;50.908;6.916;2022-11-25T10:14:02;9.50;;;2.80;;
76262;SDS011;65080;50.908;6.916;2022-11-25T10:16:37;6.70;;;2.43;;
76262;SDS011;65080;50.908;6.916;2022-11-25T10:19:20;4.80;;;2.07;;
76262;SDS011;65080;50.908;6.916;2022-11-25T10:21:55;9.33;;;2.40;;
76262;SDS011;65080;50.908;6.916;2022-11-25T10:24:25;8.27;;;2.17;;
76262;SDS011;65080;50.908;6.916;2022-11-25T10:26:54;7.00;;;1.90;;
76262;SDS011;65080;50.908;6.916;2022-11-25T10:29:26;6.47;;;2.07;;
76262;SDS011;65080;50.908;6.916;2022-11-25T10:31:59;10.70;;;2.83;;
76262;SDS011;65080;50.908;6.916;2022-11-25T10:34:37;12.80;;;2.30;;
76262;SDS011;65080;50.908;6.916;2022-11-25T10:37:10;11.80;;;2.50;;
76262;SDS011;65080;50.908;6.916;2022-11-25T10:39:44;10.77;;;2.60;;
76262;SDS011;65080;50.908;6.916;2022-11-25T10:42:13;11.43;;;2.00;;
76262;SDS011;65080;50.908;6.916;2022-11-25T10:44:45;6.57;;;1.67;;
76262;SDS011;65080;50.908;6.916;2022-11-25T10:47:21;9.50;;;2.40;;
76262;SDS011;65080;50.908;6.916;2022-11-25T10:50:10;7.93;;;2.07;;
76262;SDS011;65080;50.908;6.916;2022-11-25T10:52:45;8.67;;;2.33;;
76262;SDS011;65080;50.908;6.916;2022-11-25T10:55:20;7.93;;;2.07;;
76262;SDS011;65080;50.908;6.916;2022-11-25T10:57:51;10.07;;;1.97;;
76262;SDS011;65080;50.908;6.916;2022-11-25T11:00:25;5.23;;;2.03;;
76262;SDS011;65080;50.908;6.916;2022-11-25T11:02:56;6.50;;;2.07;;
76262;SDS011;65080;50.908;6.916;2022-11-25T11:05:27;9.80;;;2.43;;
76262;SDS011;65080;50.908;6.916;2022-11-25T11:08:07;9.30;;;1.97;;
76262;SDS011;65080;50.908;6.916;2022-11-25T11:10:45;6.83;;;2.20;;
76262;SDS011;65080;50.908;6.916;2022-11-25T11:13:22;6.30;;;1.70;;
76262;SDS011;65080;50.908;6.916;2022-11-25T11:15:53;12.20;;;2.43;;
76262;SDS011;65080;50.908;6.916;2022-11-25T11:18:25;11.70;;;2.40;;
76262;SDS011;65080;50.908;6.916;2022-11-25T11:20:55;7.83;;;2.27;;
76262;SDS011;65080;50.908;6.916;2022-11-25T11:23:25;10.73;;;2.10;;
76262;SDS011;65080;50.908;6.916;2022-11-25T11:25:58;8.93;;;1.70;;
76262;SDS011;65080;50.908;6.916;2022-11-25T11:28:37;8.77;;;1.90;;
76262;SDS011;65080;50.908;6.916;2022-11-25T11:31:07;14.63;;;2.40;;
76262;SDS011;65080;50.908;6.916;2022-11-25T11:33:49;7.60;;;2.33;;
76262;SDS011;65080;50.908;6.916;2022-11-25T11:36:28;11.00;;;2.10;;
76262;SDS011;65080;50.908;6.916;2022-11-25T11:39:07;8.87;;;2.27;;
76262;SDS011;65080;50.908;6.916;2022-11-25T11:41:49;16.03;;;3.33;;
76262;SDS011;65080;50.908;6.916;2022-11-25T11:44:24;12.40;;;2.60;;
76262;SDS011;65080;50.908;6.916;2022-11-25T11:47:04;13.57;;;2.50;;
76262;SDS011;65080;50.908;6.916;2022-11-25T11:49:49;14.23;;;2.47;;
76262;SDS011;65080;50.908;6.916;2022-11-25T11:52:43;9.03;;;2.63;;
76262;SDS011;65080;50.908;6.916;2022-11-25T11:55:27;11.10;;;3.30;;
76262;SDS011;65080;50.908;6.916;2022-11-25T11:58:11;12.50;;;2.70;;
76262;SDS011;65080;50.908;6.916;2022-11-25T12:00:48;7.80;;;2.40;;
76262;SDS011;65080;50.908;6.916;2022-11-25T12:03:26;20.37;;;3.53;;
76262;SDS011;65080;50.908;6.916;2022-11-25T12:05:56;19.33;;;3.30;;
76262;SDS011;65080;50.908;6.916;2022-11-25T12:08:29;11.83;;;2.83;;
76262;SDS011;65080;50.908;6.916;2022-11-25T12:11:08;13.17;;;2.73;;
76262;SDS011;65080;50.908;6.916;2022-11-25T12:13:41;11.47;;;2.67;;
76262;SDS011;65080;50.908;6.916;2022-11-25T12:16:16;18.80;;;3.40;;
76262;SDS011;65080;50.908;6.916;2022-11-25T12:18:51;12.13;;;2.67;;
76262;SDS011;65080;50.908;6.916;2022-11-25T12:21:31;14.50;;;2.00;;
76262;SDS011;65080;50.908;6.916;2022-11-25T12:24:10;10.33;;;2.03;;
76262;SDS011;65080;50.908;6.916;2022-11-25T12:26:48;10.63;;;2.70;;
76262;SDS011;65080;50.908;6.916;2022-11-25T12:29:23;10.27;;;1.90;;
76262;SDS011;65080;50.908;6.916;2022-11-25T12:32:12;12.47;;;2.50;;
76262;SDS011;65080;50.908;6.916;2022-11-25T12:34:57;15.30;;;2.70;;
76262;SDS011;65080;50.908;6.916;2022-11-25T12:37:31;11.33;;;2.53;;
76262;SDS011;65080;50.908;6.916;2022-11-25T12:40:03;11.77;;;2.37;;
76262;SDS011;65080;50.908;6.916;2022-11-25T12:42:39;12.80;;;2.37;;
76262;SDS011;65080;50.908;6.916;2022-11-25T12:45:11;11.57;;;2.20;;
76262;SDS011;65080;50.908;6.916;2022-11-25T12:47:45;14.20;;;3.17;;
76262;SDS011;65080;50.908;6.916;2022-11-25T12:50:14;10.30;;;2.33;;
76262;SDS011;65080;50.908;6.916;2022-11-25T12:52:46;12.50;;;1.73;;
76262;SDS011;65080;50.908;6.916;2022-11-25T12:55:20;13.47;;;2.50;;
76262;SDS011;65080;50.908;6.916;2022-11-25T13:00:56;14.50;;;2.47;;
76262;SDS011;65080;50.908;6.916;2022-11-25T13:03:59;14.83;;;3.17;;
76262;SDS011;65080;50.908;6.916;2022-11-25T13:09:45;12.40;;;2.40;;
76262;SDS011;65080;50.908;6.916;2022-11-25T13:12:49;9.47;;;2.30;;
76262;SDS011;65080;50.908;6.916;2022-11-25T13:15:26;11.97;;;3.47;;
76262;SDS011;65080;50.908;6.916;2022-11-25T13:18:01;6.13;;;1.83;;
76262;SDS011;65080;50.908;6.916;2022-11-25T13:20:42;9.00;;;1.97;;
76262;SDS011;65080;50.908;6.916;2022-11-25T13:23:25;8.13;;;3.03;;
76262;SDS011;65080;50.908;6.916;2022-11-25T13:32:30;9.57;;;1.87;;
76262;SDS011;65080;50.908;6.916;2022-11-25T13:38:36;10.60;;;2.83;;
76262;SDS011;65080;50.908;6.916;2022-11-25T13:41:35;9.27;;;2.90;;
76262;SDS011;65080;50.908;6.916;2022-11-25T13:44:10;5.97;;;1.93;;
76262;SDS011;65080;50.908;6.916;2022-11-25T13:46:54;8.57;;;2.30;;
76262;SDS011;65080;50.908;6.916;2022-11-25T13:49:25;8.00;;;1.97;;
76262;SDS011;65080;50.908;6.916;2022-11-25T13:52:02;11.47;;;2.40;;
76262;SDS011;65080;50.908;6.916;2022-11-25T13:54:35;14.97;;;2.30;;
76262;SDS011;65080;50.908;6.916;2022-11-25T13:57:15;13.03;;;2.37;;
76262;SDS011;65080;50.908;6.916;2022-11-25T13:59:52;9.47;;;2.47;;
76262;SDS011;65080;50.908;6.916;2022-11-25T14:02:31;6.53;;;1.70;;
76262;SDS011;65080;50.908;6.916;2022-11-25T14:08:21;6.90;;;1.90;;
76262;SDS011;65080;50.908;6.916;2022-11-25T14:11:04;12.20;;;3.07;;
76262;SDS011;65080;50.908;6.916;2022-11-25T14:13:53;10.93;;;1.90;;
76262;SDS011;65080;50.908;6.916;2022-11-25T14:16:35;9.40;;;2.80;;
76262;SDS011;65080;50.908;6.916;2022-11-25T14:19:15;11.67;;;2.50;;
76262;SDS011;65080;50.908;6.916;2022-11-25T14:22:22;8.80;;;2.07;;
76262;SDS011;65080;50.908;6.916;2022-11-25T14:25:08;10.67;;;2.17;;
76262;SDS011;65080;50.908;6.916;2022-11-25T14:27:43;7.13;;;1.87;;
76262;SDS011;65080;50.908;6.916;2022-11-25T14:30:14;6.80;;;2.23;;
76262;SDS011;65080;50.908;6.916;2022-11-25T14:32:53;14.23;;;2.50;;
76262;SDS011;65080;50.908;6.916;2022-11-25T14:35:27;10.90;;;2.60;;
76262;SDS011;65080;50.908;6.916;2022-11-25T14:38:03;8.77;;;2.23;;
76262;SDS011;65080;50.908;6.916;2022-11-25T14:40:37;9.97;;;2.10;;
76262;SDS011;65080;50.908;6.916;2022-11-25T14:43:11;10.23;;;2.50;;
76262;SDS011;65080;50.908;6.916;2022-11-25T14:45:42;9.43;;;2.00;;
76262;SDS011;65080;50.908;6.916;2022-11-25T14:48:13;11.00;;;2.43;;
76262;SDS011;65080;50.908;6.916;2022-11-25T14:50:53;12.33;;;3.10;;
76262;SDS011;65080;50.908;6.916;2022-11-25T14:53:22;7.77;;;2.47;;
76262;SDS011;65080;50.908;6.916;2022-11-25T14:55:53;7.17;;;1.83;;
76262;SDS011;65080;50.908;6.916;2022-11-25T14:58:25;8.23;;;2.17;;
76262;SDS011;65080;50.908;6.916;2022-11-25T15:00:58;10.03;;;2.60;;
76262;SDS011;65080;50.908;6.916;2022-11-25T15:03:29;6.93;;;1.90;;
76262;SDS011;65080;50.908;6.916;2022-11-25T15:05:59;12.07;;;2.17;;
76262;SDS011;65080;50.908;6.916;2022-11-25T15:08:37;9.70;;;2.43;;
76262;SDS011;65080;50.908;6.916;2022-11-25T15:11:09;12.73;;;2.33;;
76262;SDS011;65080;50.908;6.916;2022-11-25T15:13:41;10.97;;;2.17;;
76262;SDS011;65080;50.908;6.916;2022-11-25T15:16:11;16.23;;;2.53;;
76262;SDS011;65080;50.908;6.916;2022-11-25T15:18:45;10.60;;;2.30;;
76262;SDS011;65080;50.908;6.916;2022-11-25T15:21:16;9.13;;;2.60;;
76262;SDS011;65080;50.908;6.916;2022-11-25T15:23:47;14.93;;;2.27;;
76262;SDS011;65080;50.908;6.916;2022-11-25T15:26:17;6.43;;;2.30;;
76262;SDS011;65080;50.908;6.916;2022-11-25T15:28:51;13.40;;;2.60;;
76262;SDS011;65080;50.908;6.916;2022-11-25T15:31:24;7.20;;;2.17;;